createdAt,value
2023-05-13T00:01:26.178Z,87.21
2023-05-13T00:03:53.093Z,87.11
2023-05-13T00:06:19.906Z,86.46
2023-05-13T00:08:46.764Z,86.68
2023-05-13T00:11:13.551Z,87.14
2023-05-13T00:13:40.279Z,87.05
2023-05-13T00:16:07.012Z,87.19
2023-05-13T00:18:33.961Z,86.87
2023-05-13T00:21:00.730Z,87.10
2023-05-13T00:23:27.466Z,86.99
2023-05-13T00:25:54.225Z,86.56
2023-05-13T00:28:21.231Z,86.52
2023-05-13T00:30:49.338Z,86.76
2023-05-13T00:33:16.627Z,86.97
2023-05-13T00:35:43.649Z,86.57
2023-05-13T00:38:10.384Z,87.16
2023-05-13T00:40:39.612Z,87.73
2023-05-13T00:43:06.812Z,88.41
2023-05-13T00:45:33.639Z,88.57
2023-05-13T00:48:00.814Z,88.48
2023-05-13T00:50:27.741Z,87.41
2023-05-13T00:52:57.320Z,87.49
2023-05-13T00:55:24.173Z,87.50
2023-05-13T00:57:50.878Z,88.15
2023-05-13T01:00:18.244Z,87.69
2023-05-13T01:03:19.245Z,88.38
2023-05-13T01:06:03.619Z,88.23
2023-05-13T01:08:41.145Z,87.82
2023-05-13T01:11:13.550Z,87.89
2023-05-13T01:13:43.512Z,87.23
2023-05-13T01:16:20.695Z,85.93
2023-05-13T01:18:56.857Z,86.06
2023-05-13T01:21:27.900Z,86.45
2023-05-13T01:23:56.098Z,86.83
2023-05-13T01:26:24.333Z,86.79
2023-05-13T01:28:51.558Z,86.92
2023-05-13T01:31:19.577Z,86.67
2023-05-13T01:33:47.499Z,86.59
2023-05-13T01:36:15.434Z,86.77
2023-05-13T01:38:44.298Z,86.40
2023-05-13T01:41:11.184Z,86.38
2023-05-13T01:43:38.794Z,87.17
2023-05-13T01:46:12.417Z,87.02
2023-05-13T01:48:39.293Z,86.38
2023-05-13T01:51:10.666Z,86.49
2023-05-13T01:53:37.384Z,86.19
2023-05-13T01:56:04.371Z,86.39
2023-05-13T01:58:31.562Z,86.38
2023-05-13T02:00:58.355Z,86.93
2023-05-13T02:03:25.191Z,87.50
2023-05-13T02:05:52.526Z,87.59
2023-05-13T02:08:19.337Z,87.82
2023-05-13T02:10:55.004Z,87.54
2023-05-13T02:13:21.840Z,87.78
2023-05-13T02:15:48.621Z,87.55
2023-05-13T02:18:15.596Z,87.67
2023-05-13T02:20:42.397Z,87.99
2023-05-13T02:23:09.353Z,88.29
2023-05-13T02:25:36.247Z,88.61
2023-05-13T02:28:03.085Z,88.98
2023-05-13T02:30:29.921Z,89.17
2023-05-13T02:32:58.042Z,88.91
2023-05-13T02:35:26.122Z,89.00
2023-05-13T02:37:52.978Z,89.10
2023-05-13T02:40:19.901Z,89.20
2023-05-13T02:42:47.314Z,89.02
2023-05-13T02:45:17.203Z,89.05
2023-05-13T02:47:49.372Z,89.12
2023-05-13T02:50:17.102Z,89.25
2023-05-13T02:52:44.754Z,89.13
2023-05-13T02:55:11.722Z,89.36
2023-05-13T02:57:38.761Z,89.37
2023-05-13T03:00:06.600Z,89.88
2023-05-13T03:02:35.044Z,89.10
2023-05-13T03:05:01.897Z,89.09
2023-05-13T03:07:28.598Z,89.17
2023-05-13T03:09:55.865Z,89.79
2023-05-13T03:12:22.999Z,90.01
2023-05-13T03:14:49.809Z,90.19
2023-05-13T03:17:16.588Z,90.51
2023-05-13T03:19:43.506Z,90.70
2023-05-13T03:22:10.430Z,90.69
2023-05-13T03:24:37.162Z,90.40
2023-05-13T03:27:04.120Z,90.56
2023-05-13T03:29:32.424Z,90.98
2023-05-13T03:31:59.256Z,90.45
2023-05-13T03:34:26.314Z,90.23
2023-05-13T03:36:53.313Z,90.71
2023-05-13T03:39:20.223Z,90.50
2023-05-13T03:41:46.982Z,90.56
2023-05-13T03:44:13.919Z,90.16
2023-05-13T03:46:40.865Z,89.64
2023-05-13T03:49:07.796Z,90.91
2023-05-13T03:51:34.602Z,90.39
2023-05-13T03:54:02.396Z,90.40
2023-05-13T03:56:29.325Z,89.92
2023-05-13T03:58:56.230Z,90.24
2023-05-13T04:01:24.085Z,90.83
2023-05-13T04:03:50.940Z,90.55
2023-05-13T04:06:17.672Z,91.16
2023-05-13T04:08:47.098Z,90.79
2023-05-13T04:11:15.905Z,91.00
2023-05-13T04:13:44.419Z,91.10
2023-05-13T04:16:11.194Z,91.00
2023-05-13T04:18:37.953Z,89.99
2023-05-13T04:21:09.002Z,89.83
2023-05-13T04:23:36.099Z,90.38
2023-05-13T04:26:02.785Z,90.49
2023-05-13T04:28:29.867Z,90.43
2023-05-13T04:30:57.415Z,90.68
2023-05-13T04:33:24.455Z,91.11
2023-05-13T04:35:51.229Z,91.00
2023-05-13T04:38:18.032Z,90.86
2023-05-13T04:40:45.624Z,90.44
2023-05-13T04:43:15.669Z,90.43
2023-05-13T04:45:49.132Z,90.48
2023-05-13T04:48:16.512Z,90.70
2023-05-13T04:50:47.101Z,90.26
2023-05-13T04:53:15.695Z,90.95
2023-05-13T04:55:42.458Z,90.47
2023-05-13T04:58:09.329Z,90.24
2023-05-13T05:00:36.598Z,90.10
2023-05-13T05:03:03.421Z,90.48
2023-05-13T05:05:30.304Z,90.61
2023-05-13T05:07:57.213Z,90.79
2023-05-13T05:10:23.968Z,91.11
2023-05-13T05:12:54.624Z,90.91
2023-05-13T05:15:22.029Z,90.75
2023-05-13T05:17:52.633Z,91.26
2023-05-13T05:20:19.884Z,91.50
2023-05-13T05:22:50.270Z,91.28
2023-05-13T05:25:18.693Z,91.34
2023-05-13T05:27:45.378Z,90.20
2023-05-13T05:30:12.905Z,89.71
2023-05-13T05:32:40.464Z,88.92
2023-05-13T05:35:08.823Z,88.54
2023-05-13T05:37:36.639Z,88.67
2023-05-13T05:40:04.397Z,88.85
2023-05-13T05:42:33.156Z,88.85
2023-05-13T05:44:59.904Z,88.58
2023-05-13T05:47:26.693Z,88.93
2023-05-13T05:49:53.532Z,89.16
2023-05-13T05:52:20.526Z,89.38
2023-05-13T05:54:48.078Z,89.57
2023-05-13T05:57:14.801Z,89.17
2023-05-13T05:59:41.573Z,89.05
2023-05-13T06:02:08.486Z,88.59
2023-05-13T06:04:35.931Z,88.17
2023-05-13T06:07:02.796Z,87.47
2023-05-13T06:09:29.825Z,86.97
2023-05-13T06:11:56.547Z,84.44
2023-05-13T06:14:23.657Z,83.66
2023-05-13T06:16:50.410Z,83.40
2023-05-13T06:19:17.798Z,83.27
2023-05-13T06:21:45.212Z,82.76
2023-05-13T06:24:12.029Z,82.58
2023-05-13T06:26:40.426Z,82.07
2023-05-13T06:29:07.228Z,81.57
2023-05-13T06:31:34.068Z,80.56
2023-05-13T06:34:01.841Z,80.88
2023-05-13T06:36:28.562Z,81.20
2023-05-13T06:38:55.644Z,81.99
2023-05-13T06:41:24.053Z,82.43
2023-05-13T06:43:53.267Z,81.81
2023-05-13T06:46:21.724Z,82.58
2023-05-13T06:48:52.293Z,82.47
2023-05-13T06:51:19.425Z,82.69
2023-05-13T06:53:46.407Z,81.88
2023-05-13T06:56:13.399Z,81.73
2023-05-13T06:58:40.143Z,80.91
2023-05-13T07:01:07.018Z,80.46
2023-05-13T07:03:33.858Z,79.79
2023-05-13T07:06:00.846Z,78.95
2023-05-13T07:08:27.642Z,79.41
2023-05-13T07:10:54.495Z,79.97
2023-05-13T07:13:22.542Z,80.11
2023-05-13T07:15:49.435Z,80.34
2023-05-13T07:18:16.413Z,79.46
2023-05-13T07:20:43.295Z,78.66
2023-05-13T07:23:10.123Z,77.60
2023-05-13T07:25:39.773Z,75.99
2023-05-13T07:28:06.498Z,76.46
2023-05-13T07:30:33.377Z,77.05
2023-05-13T07:33:00.235Z,77.36
2023-05-13T07:35:27.086Z,76.96
2023-05-13T07:37:54.034Z,75.54
2023-05-13T07:40:21.323Z,77.21
2023-05-13T07:42:48.243Z,77.40
2023-05-13T07:45:15.053Z,76.56
2023-05-13T07:47:43.719Z,76.76
2023-05-13T07:50:11.746Z,72.61
2023-05-13T07:52:38.799Z,74.37
2023-05-13T07:55:06.161Z,72.86
2023-05-13T07:57:32.927Z,73.83
2023-05-13T07:59:59.763Z,72.01
2023-05-13T08:02:27.261Z,73.45
2023-05-13T08:04:54.574Z,74.87
2023-05-13T08:07:21.535Z,75.68
2023-05-13T08:09:48.274Z,75.66
2023-05-13T08:12:15.053Z,75.62
2023-05-13T08:14:41.961Z,76.54
2023-05-13T08:17:08.948Z,74.70
2023-05-13T08:19:36.428Z,72.58
2023-05-13T08:22:03.312Z,72.45
2023-05-13T08:24:30.187Z,73.41
2023-05-13T08:26:56.947Z,73.36
2023-05-13T08:29:23.722Z,75.27
2023-05-13T08:31:50.861Z,74.51
2023-05-13T08:34:17.784Z,74.33
2023-05-13T08:36:44.522Z,75.38
2023-05-13T08:39:11.359Z,75.29
2023-05-13T08:41:39.839Z,75.39
2023-05-13T08:44:09.342Z,73.13
2023-05-13T08:46:38.193Z,74.35
2023-05-13T08:49:05.496Z,71.98
2023-05-13T08:51:32.288Z,72.75
2023-05-13T08:54:00.144Z,70.95
2023-05-13T08:56:29.196Z,71.14
2023-05-13T08:58:56.441Z,69.25
2023-05-13T09:01:29.272Z,67.06
2023-05-13T09:04:04.531Z,68.24
2023-05-13T09:06:31.316Z,69.07
2023-05-13T09:09:03.005Z,70.79
2023-05-13T09:11:29.818Z,66.98
2023-05-13T09:14:02.126Z,67.44
2023-05-13T09:16:29.499Z,65.41
2023-05-13T09:19:00.553Z,66.43
2023-05-13T09:21:29.295Z,60.72
2023-05-13T09:24:03.523Z,65.41
2023-05-13T09:26:30.736Z,69.55
2023-05-13T09:29:18.961Z,66.57
2023-05-13T09:31:48.844Z,67.09
2023-05-13T09:34:26.228Z,64.20
2023-05-13T09:37:18.048Z,65.97
2023-05-13T09:39:44.808Z,64.44
2023-05-13T09:42:16.813Z,65.11
2023-05-13T09:44:45.735Z,65.27
2023-05-13T09:47:16.895Z,64.46
2023-05-13T09:49:45.315Z,65.72
2023-05-13T09:52:16.774Z,64.74
2023-05-13T09:54:44.601Z,65.23
2023-05-13T09:57:13.372Z,63.96
2023-05-13T09:59:40.299Z,62.80
2023-05-13T10:02:08.809Z,65.02
2023-05-13T10:04:35.600Z,65.42
2023-05-13T10:07:05.913Z,63.37
2023-05-13T10:09:36.809Z,64.12
2023-05-13T10:12:07.235Z,63.18
2023-05-13T10:14:36.959Z,62.09
2023-05-13T10:17:05.418Z,60.21
2023-05-13T10:19:33.033Z,60.91
2023-05-13T10:22:00.490Z,62.50
2023-05-13T10:24:29.076Z,61.59
2023-05-13T10:26:57.051Z,64.06
2023-05-13T10:29:25.630Z,64.16
2023-05-13T10:31:53.277Z,62.15
2023-05-13T10:34:21.583Z,63.26
2023-05-13T10:36:55.086Z,64.10
2023-05-13T10:39:40.290Z,63.02
2023-05-13T10:42:22.075Z,63.39
2023-05-13T10:44:54.469Z,63.33
2023-05-13T10:47:21.376Z,64.50
2023-05-13T10:49:52.988Z,65.05
2023-05-13T10:52:19.994Z,65.66
2023-05-13T10:55:01.450Z,65.52
2023-05-13T10:58:04.590Z,66.77
2023-05-13T11:00:31.903Z,63.97
2023-05-13T11:03:29.557Z,64.47
2023-05-13T11:06:13.958Z,64.10
2023-05-13T11:09:55.430Z,65.93
2023-05-13T11:12:22.305Z,65.28
2023-05-13T11:14:49.032Z,66.75
2023-05-13T11:17:20.873Z,65.74
2023-05-13T11:19:50.606Z,66.69
2023-05-13T11:22:24.223Z,64.10
2023-05-13T11:25:09.388Z,65.45
2023-05-13T11:27:41.127Z,66.38
2023-05-13T11:30:28.525Z,67.84
2023-05-13T11:32:57.329Z,66.01
2023-05-13T11:35:33.413Z,64.22
2023-05-13T11:38:02.368Z,66.99
2023-05-13T11:40:31.916Z,65.48
2023-05-13T11:42:59.435Z,65.55
2023-05-13T11:45:27.766Z,68.03
2023-05-13T11:47:55.071Z,66.46
2023-05-13T11:50:24.120Z,66.05
2023-05-13T11:52:59.295Z,66.69
2023-05-13T11:55:27.170Z,68.32
2023-05-13T11:57:54.411Z,67.47
2023-05-13T12:00:34.725Z,68.13
2023-05-13T12:03:11.694Z,68.25
2023-05-13T12:05:39.171Z,71.49
2023-05-13T12:08:09.979Z,70.48
2023-05-13T12:10:43.738Z,70.37
2023-05-13T12:13:11.057Z,71.74
2023-05-13T12:15:38.209Z,69.11
2023-05-13T12:18:05.586Z,68.75
2023-05-13T12:20:33.598Z,70.44
2023-05-13T12:23:01.636Z,68.76
2023-05-13T12:25:40.390Z,68.42
2023-05-13T12:28:21.642Z,67.54
2023-05-13T12:31:07.856Z,66.03
2023-05-13T12:33:43.144Z,67.00
2023-05-13T12:36:24.337Z,66.40
2023-05-13T12:38:59.829Z,65.87
2023-05-13T12:41:30.132Z,62.78
2023-05-13T12:44:02.104Z,65.77
2023-05-13T12:46:29.853Z,64.02
2023-05-13T12:49:01.783Z,64.11
2023-05-13T12:51:33.867Z,65.83
2023-05-13T12:54:00.965Z,66.11
2023-05-13T12:56:28.281Z,65.50
2023-05-13T12:58:55.457Z,63.63
2023-05-13T13:01:22.576Z,63.30
2023-05-13T13:03:52.414Z,61.57
2023-05-13T13:06:19.166Z,62.43
2023-05-13T13:08:46.056Z,61.25
2023-05-13T13:11:18.700Z,62.07
2023-05-13T13:13:47.068Z,62.53
2023-05-13T15:28:18.468Z,87.48
2023-05-13T15:31:36.437Z,88.72
2023-05-13T15:34:03.366Z,88.90
2023-05-13T15:36:30.100Z,88.44
2023-05-13T15:38:56.859Z,88.74
2023-05-13T15:41:23.620Z,88.98
2023-05-13T15:43:50.390Z,88.52
2023-05-13T15:46:17.338Z,88.43
2023-05-13T15:48:44.170Z,88.02
2023-05-13T15:51:11.081Z,88.15
2023-05-13T15:53:37.851Z,87.95
2023-05-13T15:56:04.836Z,87.82
2023-05-13T15:58:31.946Z,87.32
2023-05-13T16:00:58.822Z,87.99
2023-05-13T16:03:25.821Z,87.58
2023-05-13T16:05:53.065Z,86.00
2023-05-13T16:08:20.074Z,86.58
2023-05-13T16:10:46.929Z,85.84
2023-05-13T16:13:16.380Z,86.76
2023-05-13T16:15:43.250Z,87.07
2023-05-13T16:18:10.320Z,89.35
2023-05-13T16:20:37.288Z,88.83
2023-05-13T16:23:04.616Z,89.39
2023-05-13T16:25:32.291Z,86.63
2023-05-13T16:27:59.283Z,87.15
2023-05-13T16:30:26.158Z,87.84
2023-05-13T16:32:54.675Z,88.66
2023-05-13T16:35:22.694Z,89.14
2023-05-13T16:37:50.703Z,89.10
2023-05-13T16:40:17.588Z,88.65
2023-05-13T16:42:46.546Z,87.66
2023-05-13T16:45:13.753Z,88.90
2023-05-13T16:47:41.297Z,88.72
2023-05-13T16:50:09.939Z,88.87
2023-05-13T16:52:37.096Z,88.99
2023-05-13T16:55:04.072Z,89.93
2023-05-13T16:57:30.937Z,89.67
2023-05-13T16:59:57.710Z,89.50
2023-05-13T17:02:26.658Z,89.00
2023-05-13T17:04:55.039Z,88.93
2023-05-13T17:07:22.737Z,88.78
2023-05-13T17:09:49.849Z,89.19
2023-05-13T17:12:17.519Z,89.40
2023-05-13T17:14:44.743Z,89.40
2023-05-13T17:17:12.987Z,89.45
2023-05-13T17:19:39.939Z,88.55
2023-05-13T17:22:07.534Z,88.08
2023-05-13T17:24:34.690Z,88.28
2023-05-13T17:27:01.879Z,88.63
2023-05-13T17:29:28.961Z,88.19
2023-05-13T17:31:56.083Z,87.53
2023-05-13T17:34:23.477Z,87.65
2023-05-13T17:36:50.678Z,85.89
2023-05-13T17:39:18.148Z,86.11
2023-05-13T17:41:48.337Z,86.94
2023-05-13T17:44:15.525Z,87.39
2023-05-13T17:46:42.510Z,88.34
2023-05-13T17:49:09.527Z,88.81
2023-05-13T17:51:39.674Z,88.95
2023-05-13T17:54:07.460Z,89.10
2023-05-13T17:56:34.328Z,89.22
2023-05-13T17:59:01.267Z,89.12
2023-05-13T18:01:28.037Z,89.40
2023-05-13T18:03:55.645Z,89.16
2023-05-13T18:06:22.501Z,88.73
2023-05-13T18:08:49.532Z,89.14
2023-05-13T18:11:16.559Z,88.34
2023-05-13T18:13:43.360Z,89.04
2023-05-13T18:16:12.259Z,89.40
2023-05-13T18:18:39.328Z,89.39
2023-05-13T18:21:06.217Z,89.70
2023-05-13T18:23:33.038Z,89.45
2023-05-13T18:26:00.185Z,89.72
2023-05-13T18:28:27.181Z,89.94
2023-05-13T18:30:54.080Z,89.51
2023-05-13T18:33:21.813Z,89.86
2023-05-13T18:35:49.100Z,90.08
2023-05-13T18:38:15.928Z,90.12
2023-05-13T18:40:42.665Z,89.60
2023-05-13T18:43:09.641Z,89.43
2023-05-13T18:45:36.845Z,89.48
2023-05-13T18:48:04.475Z,89.42
2023-05-13T18:50:31.449Z,89.34
2023-05-13T18:52:59.006Z,88.99
2023-05-13T18:55:25.951Z,88.87
2023-05-13T18:57:52.695Z,88.65
2023-05-13T19:00:19.918Z,88.77
2023-05-13T19:02:47.053Z,88.63
2023-05-13T19:05:14.111Z,87.68
2023-05-13T19:07:41.236Z,88.33
2023-05-13T19:10:09.311Z,88.24
2023-05-13T19:12:36.273Z,88.90
2023-05-13T19:15:03.358Z,89.70
2023-05-13T19:17:31.120Z,89.46
2023-05-13T19:20:00.531Z,89.43
2023-05-13T19:22:28.359Z,89.79
2023-05-13T19:24:55.207Z,89.47
2023-05-13T19:27:22.231Z,89.66
2023-05-13T19:29:53.704Z,89.70
2023-05-13T19:32:26.680Z,89.78
2023-05-13T19:34:54.096Z,89.93
2023-05-13T19:37:40.277Z,90.01
2023-05-13T19:40:08.526Z,89.89
2023-05-13T19:42:35.722Z,89.96
2023-05-13T19:45:14.374Z,89.80
2023-05-13T19:47:56.311Z,88.87
2023-05-13T19:50:24.920Z,90.06
2023-05-13T19:52:55.338Z,89.25
2023-05-13T19:55:23.567Z,90.40
2023-05-13T19:57:51.260Z,89.77
2023-05-13T20:00:32.655Z,90.94
2023-05-13T20:03:01.093Z,89.48
2023-05-13T20:05:29.427Z,89.66
2023-05-13T20:08:00.153Z,87.17
2023-05-13T20:10:28.843Z,88.74
2023-05-13T20:12:56.522Z,88.41
2023-05-13T20:15:23.569Z,87.63
2023-05-13T20:17:58.994Z,87.38
2023-05-13T20:20:29.117Z,85.09
2023-05-13T20:22:59.858Z,86.04
2023-05-13T20:25:27.036Z,85.64
2023-05-13T20:27:58.361Z,84.60
2023-05-13T20:30:29.242Z,84.98
2023-05-13T20:32:56.180Z,84.82
2023-05-13T20:35:28.950Z,84.11
2023-05-13T20:37:57.381Z,85.07
2023-05-13T20:40:26.248Z,87.27
2023-05-13T20:42:53.312Z,88.29
2023-05-13T20:45:23.389Z,88.24
2023-05-13T20:47:50.257Z,88.44
2023-05-13T20:50:17.125Z,88.61
2023-05-13T20:52:44.157Z,88.75
2023-05-13T20:55:12.326Z,88.77
2023-05-13T20:57:39.205Z,87.87
2023-05-13T21:00:07.415Z,88.48
2023-05-13T21:02:34.267Z,88.34
2023-05-13T21:05:01.071Z,87.27
2023-05-13T21:07:27.995Z,89.82
2023-05-13T21:09:55.168Z,90.19
2023-05-13T21:12:23.376Z,90.28
2023-05-13T21:14:50.182Z,89.79
2023-05-13T21:17:23.103Z,89.47
2023-05-13T21:19:51.000Z,89.11
2023-05-13T21:22:18.061Z,87.53
2023-05-13T21:24:46.195Z,85.33
2023-05-13T21:27:16.190Z,86.07
2023-05-13T21:29:45.426Z,83.79
2023-05-13T21:32:12.303Z,81.81
2023-05-13T21:34:39.236Z,83.98
2023-05-13T21:37:08.968Z,83.32
2023-05-13T21:39:36.880Z,83.98
2023-05-13T21:42:07.251Z,81.85
2023-05-13T21:44:34.330Z,83.29
2023-05-13T21:47:01.159Z,81.62
2023-05-13T21:49:28.068Z,81.12
2023-05-13T21:51:54.866Z,79.61
2023-05-13T21:54:22.819Z,81.21
2023-05-13T21:56:49.868Z,79.35
2023-05-13T21:59:16.696Z,80.27
2023-05-13T22:01:43.579Z,80.82
2023-05-13T22:04:10.507Z,83.35
2023-05-13T22:06:37.240Z,84.06
2023-05-13T22:09:04.556Z,83.47
2023-05-13T22:11:31.867Z,82.15
2023-05-13T22:13:59.267Z,84.07
2023-05-13T22:16:32.068Z,85.33
2023-05-13T22:19:04.712Z,86.04
2023-05-13T22:21:34.288Z,86.50
2023-05-13T22:24:00.987Z,86.47
2023-05-13T22:26:27.866Z,86.76
2023-05-13T22:28:54.581Z,86.62
2023-05-13T22:31:21.531Z,87.10
2023-05-13T22:33:48.265Z,86.90
2023-05-13T22:36:15.102Z,86.45
2023-05-13T22:38:44.295Z,87.28
2023-05-13T22:41:12.361Z,87.75
2023-05-13T22:43:43.649Z,87.39
2023-05-13T22:46:10.520Z,85.59
2023-05-13T22:48:37.355Z,86.58
2023-05-13T22:51:04.295Z,87.05
2023-05-13T22:53:31.055Z,87.25
2023-05-13T22:55:58.044Z,87.43
2023-05-13T22:58:26.710Z,87.41
2023-05-13T23:00:53.463Z,88.57
2023-05-13T23:03:20.199Z,88.18
2023-05-13T23:05:47.168Z,87.73
2023-05-13T23:08:13.876Z,89.25
2023-05-13T23:10:40.627Z,88.96
2023-05-13T23:13:07.642Z,89.43
2023-05-13T23:15:36.987Z,88.50
2023-05-13T23:18:03.838Z,84.14
2023-05-13T23:20:31.096Z,85.85
2023-05-13T23:22:58.350Z,87.20
2023-05-13T23:25:25.069Z,86.21
2023-05-13T23:27:51.848Z,85.44
2023-05-13T23:30:18.601Z,88.08
2023-05-13T23:32:46.237Z,88.19
2023-05-13T23:35:13.102Z,88.74
2023-05-13T23:37:40.040Z,89.27
2023-05-13T23:40:07.392Z,89.38
2023-05-13T23:42:34.116Z,89.29
2023-05-13T23:45:00.801Z,89.10
2023-05-13T23:47:27.905Z,88.51
2023-05-13T23:49:54.809Z,88.66
2023-05-13T23:52:21.547Z,88.92
2023-05-13T23:54:48.227Z,88.77
2023-05-13T23:57:15.071Z,88.51
2023-05-13T23:59:42.073Z,87.92
